Creston, California
Current Conditions -  °F | °C
As of 6:53 AM on Monday 24 Nov 2014 (Local Time) from KPRB Reporting Station
Clear Clear  
Wind Chill: 35°   Ceiling: Unl
Heat Index: 35°   Visibility: 10mi
Dew Point: 29°   Wind: 3mph
Humidity: 78%   Direction: 30°NNE
Pressure: 30.34"   Gusts: NA
Location:  35.52°N, 120.52°W
Report Text: KPRB 241453Z AUTO 03003KT 10SM CLR 02/M02 A3034 RMK AO2 SLP276 T00171017 53014 TSNO
Loading
Personal Weather Stations






























Interactive Weather Map New forecast layout! Learn more

10-Day Weather Forecast

Advertisements
Track Severe Weather on mobile